ENQE weather

Oseberg South Platform
Norway

Public forecast

Using degrees Celsius for public forecast. Weather courtesy of forecast.io.

METAR (pilot weather report)

Closest report is Oseberg A Platform, 6.2 nm (11.4 km) N. Retrieved 2019/05/24 06:20 UTC (19 seconds ago):

ENOA 240620Z 34020KT 9999 BKN015 10/08 Q1006 W///S5

TAF (pilot weather forecast)

Closest forecast is Oseberg A Platform, 6.2 nm (11.4 km) N. Retrieved 2019/05/24 06:57 UTC (0 seconds ago):

TAF ENOA 240500Z 2406/2506 36022KT 9999 FEW020 SCT040 PROB30 TEMPO 2406/2506 BKN010